Time;durP1;ratioP1;P1;durP2;ratioP2;P2;SDS_P1;SDS_P2;PMS_P1;PMS_P2;Temp;Humidity;BMP_temperature;BMP_pressure;BME280_temperature;BME280_humidity;BME280_pressure;Samples;Min_cycle;Max_cycle;Signal;HPM_P1;HPM_P2
2022/01/14 00:03:38;;;;;;;13.4;5.2;;;;;;;;;;;;;-86
2022/01/14 00:04:31;;;;;;;;;;;;;;;3.86;96.41309;103792.1;;;;-87
2022/01/14 00:09:33;;;;;;;;;;;;;;;3.87;96.43848;103793.5;;;;-85
2022/01/14 00:14:42;;;;;;;;;;;;;;;3.86;96.43457;103786.8;;;;-85
2022/01/14 00:19:32;;;;;;;;;;;;;;;3.83;96.47168;103777.4;;;;-84
2022/01/14 00:31:38;;;;;;;;;;;;;;;3.8;96.49805;103775.8;;;;-83
2022/01/14 00:33:44;;;;;;;13.7;6.1;;;;;;;;;;;;;-85
2022/01/14 00:34:31;;;;;;;;;;;;;;;3.7;96.51953;103776.3;;;;-85
2022/01/14 00:39:31;;;;;;;;;;;;;;;3.64;96.50684;103768.7;;;;-85
2022/01/14 00:44:32;;;;;;;;;;;;;;;3.61;96.54199;103759.9;;;;-84
2022/01/14 00:49:30;;;;;;;;;;;;;;;3.57;96.54492;103753.5;;;;-83
2022/01/14 00:54:31;;;;;;;;;;;;;;;3.54;96.56055;103765;;;;-84
2022/01/14 00:59:32;;;;;;;;;;;;;;;3.5;96.52832;103765.5;;;;-85
2022/01/14 01:03:38;;;;;;;12.6;5.7;;;;;;;;;;;;;-85
2022/01/14 01:04:34;;;;;;;;;;;;;;;3.47;96.5332;103754.4;;;;-85
2022/01/14 01:09:31;;;;;;;;;;;;;;;3.44;96.5166;103753.6;;;;-85
2022/01/14 01:14:39;;;;;;;;;;;;;;;3.41;96.51074;103762.6;;;;-84
2022/01/14 01:19:32;;;;;;;;;;;;;;;3.4;96.53027;103756.9;;;;-85
2022/01/14 01:24:34;;;;;;;;;;;;;;;3.41;96.55176;103740.3;;;;-85
2022/01/14 01:33:38;;;;;;;11.9;5.1;;;;;;;;;;;;;-85
2022/01/14 01:34:30;;;;;;;;;;;;;;;3.48;96.64355;103742.3;;;;-85
2022/01/14 01:39:33;;;;;;;;;;;;;;;3.5;96.66016;103744.6;;;;-85
2022/01/14 01:44:29;;;;;;;;;;;;;;;3.52;96.66309;103740.8;;;;-86
2022/01/14 01:49:38;;;;;;;;;;;;;;;3.54;96.66699;103738.6;;;;-84
2022/01/14 01:54:32;;;;;;;;;;;;;;;3.54;96.64551;103746.8;;;;-85
2022/01/14 01:59:32;;;;;;;;;;;;;;;3.51;96.62793;103740.7;;;;-85
2022/01/14 02:03:37;;;;;;;10.9;4.8;;;;;;;;;;;;;-83
2022/01/14 02:04:31;;;;;;;;;;;;;;;3.47;96.59863;103743.7;;;;-83
2022/01/14 02:09:31;;;;;;;;;;;;;;;3.43;96.56836;103738;;;;-83
2022/01/14 02:14:52;;;;;;;;;;;;;;;3.38;96.5459;103742.5;;;;-84
2022/01/14 02:19:32;;;;;;;;;;;;;;;3.33;96.52441;103742.5;;;;-85
2022/01/14 02:24:56;;;;;;;;;;;;;;;3.29;96.52344;103739.3;;;;-85
2022/01/14 02:29:31;;;;;;;;;;;;;;;3.24;96.52539;103739.4;;;;-85
2022/01/14 02:33:38;;;;;;;9.7;4.7;;;;;;;;;;;;;-85
2022/01/14 02:34:31;;;;;;;;;;;;;;;3.19;96.49219;103742.9;;;;-86
2022/01/14 02:39:31;;;;;;;;;;;;;;;3.15;96.47266;103746.8;;;;-85
2022/01/14 02:44:32;;;;;;;;;;;;;;;3.1;96.4082;103732.8;;;;-86
2022/01/14 02:49:33;;;;;;;;;;;;;;;3.05;96.39648;103733.1;;;;-86
2022/01/14 02:54:40;;;;;;;;;;;;;;;3.01;96.4082;103740.6;;;;-84
2022/01/14 02:59:32;;;;;;;;;;;;;;;2.94;96.36133;103732.6;;;;-85
2022/01/14 03:03:38;;;;;;;9.5;4.5;;;;;;;;;;;;;-84
2022/01/14 03:04:31;;;;;;;;;;;;;;;2.89;96.33984;103723.6;;;;-85
2022/01/14 03:09:32;;;;;;;;;;;;;;;2.85;96.33008;103715.6;;;;-86
2022/01/14 03:14:32;;;;;;;;;;;;;;;2.81;96.33008;103723.6;;;;-85
2022/01/14 03:19:32;;;;;;;;;;;;;;;2.75;96.3291;103719.1;;;;-86
2022/01/14 03:29:32;;;;;;;;;;;;;;;2.68;96.3457;103720.2;;;;-87
2022/01/14 03:33:37;;;;;;;8.5;4.3;;;;;;;;;;;;;-86
2022/01/14 03:34:31;;;;;;;;;;;;;;;2.62;96.31152;103723.8;;;;-86
2022/01/14 03:39:32;;;;;;;;;;;;;;;2.59;96.31445;103712.1;;;;-85
2022/01/14 03:44:32;;;;;;;;;;;;;;;2.58;96.3125;103703.5;;;;-84
2022/01/14 03:49:32;;;;;;;;;;;;;;;2.57;96.32324;103699.7;;;;-85
2022/01/14 03:54:33;;;;;;;;;;;;;;;2.58;96.32324;103702;;;;-84
2022/01/14 03:59:36;;;;;;;;;;;;;;;2.59;96.31445;103707.7;;;;-85
2022/01/14 04:03:36;;;;;;;10.1;3.9;;;;;;;;;;;;;-85
2022/01/14 04:04:31;;;;;;;;;;;;;;;2.61;96.33105;103709.8;;;;-86
2022/01/14 04:09:36;;;;;;;;;;;;;;;2.65;96.31543;103690.6;;;;-85
2022/01/14 04:19:34;;;;;;;;;;;;;;;2.73;96.34668;103685.7;;;;-86
2022/01/14 04:24:36;;;;;;;;;;;;;;;2.77;96.33105;103689.2;;;;-85
2022/01/14 04:29:32;;;;;;;;;;;;;;;2.81;96.36328;103685.3;;;;-85
2022/01/14 04:33:37;;;;;;;12;4.4;;;;;;;;;;;;;-85
2022/01/14 04:34:30;;;;;;;;;;;;;;;2.83;96.33691;103666;;;;-86
2022/01/14 04:39:31;;;;;;;;;;;;;;;2.86;96.35352;103663.2;;;;-85
2022/01/14 04:44:31;;;;;;;;;;;;;;;2.86;96.32129;103652.2;;;;-86
2022/01/14 04:49:31;;;;;;;;;;;;;;;2.87;96.32324;103651.2;;;;-86
2022/01/14 04:54:32;;;;;;;;;;;;;;;2.86;96.28906;103644.8;;;;-86
2022/01/14 04:59:31;;;;;;;;;;;;;;;2.85;96.26465;103649.9;;;;-86
2022/01/14 05:03:37;;;;;;;11.2;4.5;;;;;;;;;;;;;-86
2022/01/14 05:04:30;;;;;;;;;;;;;;;2.84;96.21777;103643.4;;;;-86
2022/01/14 05:09:32;;;;;;;;;;;;;;;2.84;96.20703;103655.3;;;;-86
2022/01/14 05:14:37;;;;;;;;;;;;;;;2.85;96.19824;103661.9;;;;-86
2022/01/14 05:19:31;;;;;;;;;;;;;;;2.87;96.2041;103656.1;;;;-85
2022/01/14 05:24:37;;;;;;;;;;;;;;;2.89;96.18848;103650.2;;;;-86
2022/01/14 05:29:32;;;;;;;;;;;;;;;2.92;96.2168;103644.2;;;;-86
2022/01/14 05:33:35;;;;;;;15.9;5.5;;;;;;;;;;;;;-86
2022/01/14 05:34:31;;;;;;;;;;;;;;;2.95;96.22461;103655.8;;;;-87
2022/01/14 05:39:30;;;;;;;;;;;;;;;2.97;96.20508;103649.3;;;;-86
2022/01/14 05:44:33;;;;;;;;;;;;;;;3;96.25586;103643.1;;;;-86
2022/01/14 05:49:36;;;;;;;;;;;;;;;3.03;96.19727;103647.7;;;;-86
2022/01/14 05:54:33;;;;;;;;;;;;;;;3.08;96.21875;103657.8;;;;-84
2022/01/14 05:59:36;;;;;;;;;;;;;;;3.12;96.20703;103660;;;;-84
2022/01/14 06:03:37;;;;;;;13.3;5.1;;;;;;;;;;;;;-86
2022/01/14 06:04:33;;;;;;;;;;;;;;;3.17;96.2168;103658;;;;-86
2022/01/14 06:09:32;;;;;;;;;;;;;;;3.22;96.25098;103667.9;;;;-85
2022/01/14 06:14:32;;;;;;;;;;;;;;;3.26;96.20508;103649.8;;;;-83
2022/01/14 06:19:31;;;;;;;;;;;;;;;3.32;96.20801;103654.8;;;;-85
2022/01/14 06:24:31;;;;;;;;;;;;;;;3.37;96.18555;103635.1;;;;-85
2022/01/14 06:29:45;;;;;;;;;;;;;;;3.41;96.18359;103635.7;;;;-86
2022/01/14 06:33:45;;;;;;;14.9;6.5;;;;;;;;;;;;;-86
2022/01/14 06:34:36;;;;;;;;;;;;;;;3.45;96.2041;103646.4;;;;-86
2022/01/14 06:39:31;;;;;;;;;;;;;;;3.51;96.12988;103623.4;;;;-86
2022/01/14 06:44:34;;;;;;;;;;;;;;;3.56;96.0752;103646.3;;;;-86
2022/01/14 06:49:34;;;;;;;;;;;;;;;3.6;96.09766;103648;;;;-84
2022/01/14 06:54:37;;;;;;;;;;;;;;;3.65;95.97559;103653.3;;;;-86
2022/01/14 06:59:31;;;;;;;;;;;;;;;3.68;95.9082;103661.6;;;;-84
2022/01/14 07:03:35;;;;;;;18;6.9;;;;;;;;;;;;;-85
2022/01/14 07:04:30;;;;;;;;;;;;;;;3.72;95.88379;103663.7;;;;-86
2022/01/14 07:09:55;;;;;;;;;;;;;;;3.77;95.9375;103661.9;;;;-86
2022/01/14 07:14:35;;;;;;;;;;;;;;;3.81;95.88281;103666.4;;;;-84
2022/01/14 07:19:32;;;;;;;;;;;;;;;3.86;95.83789;103669.8;;;;-85
2022/01/14 07:24:35;;;;;;;;;;;;;;;3.91;95.86133;103669.5;;;;-86
2022/01/14 07:29:33;;;;;;;;;;;;;;;3.96;95.73242;103686.3;;;;-86
2022/01/14 07:33:35;;;;;;;24.2;7.6;;;;;;;;;;;;;-85
2022/01/14 07:34:31;;;;;;;;;;;;;;;3.99;95.72754;103683.7;;;;-87
2022/01/14 07:39:31;;;;;;;;;;;;;;;4.02;95.59277;103678.9;;;;-83
2022/01/14 07:44:30;;;;;;;;;;;;;;;4.04;95.54492;103687;;;;-83
2022/01/14 07:49:30;;;;;;;;;;;;;;;4.07;95.5293;103681.7;;;;-84
2022/01/14 07:54:31;;;;;;;;;;;;;;;4.1;95.45898;103678.9;;;;-84
2022/01/14 07:59:32;;;;;;;;;;;;;;;4.12;95.38672;103679.9;;;;-84
2022/01/14 08:03:44;;;;;;;18.6;7.9;;;;;;;;;;;;;-83
2022/01/14 08:04:33;;;;;;;;;;;;;;;4.13;95.32617;103680.1;;;;-84
2022/01/14 08:09:30;;;;;;;;;;;;;;;4.15;95.27539;103675.4;;;;-83
2022/01/14 08:14:30;;;;;;;;;;;;;;;4.18;95.24902;103683.9;;;;-82
2022/01/14 08:19:33;;;;;;;;;;;;;;;4.21;95.15527;103697.8;;;;-82
2022/01/14 08:24:30;;;;;;;;;;;;;;;4.23;95.08496;103699.8;;;;-83
2022/01/14 08:29:33;;;;;;;;;;;;;;;4.26;95.03906;103697.3;;;;-83
2022/01/14 08:33:35;;;;;;;17.9;8.1;;;;;;;;;;;;;-83
2022/01/14 08:34:31;;;;;;;;;;;;;;;4.29;95.03223;103703.5;;;;-83
2022/01/14 08:39:45;;;;;;;;;;;;;;;4.31;94.95117;103708.5;;;;-82
2022/01/14 08:44:41;;;;;;;;;;;;;;;4.34;94.91406;103700;;;;-87
2022/01/14 08:49:43;;;;;;;;;;;;;;;4.37;94.87891;103694.8;;;;-88
2022/01/14 08:54:32;;;;;;;;;;;;;;;4.4;94.81934;103702.2;;;;-88
2022/01/14 08:59:31;;;;;;;;;;;;;;;4.42;94.72754;103690.8;;;;-87
2022/01/14 09:03:35;;;;;;;23.3;8.2;;;;;;;;;;;;;-86
2022/01/14 09:04:34;;;;;;;;;;;;;;;4.46;94.7334;103690;;;;-86
2022/01/14 09:09:31;;;;;;;;;;;;;;;4.49;94.70898;103686.3;;;;-88
2022/01/14 09:14:46;;;;;;;;;;;;;;;4.55;94.92969;103688.2;;;;-88
2022/01/14 09:19:31;;;;;;;;;;;;;;;4.71;95.48535;103686.5;;;;-87
2022/01/14 09:24:31;;;;;;;;;;;;;;;4.72;95.29297;103695.4;;;;-86
2022/01/14 09:29:36;;;;;;;;;;;;;;;4.72;95.0957;103697.1;;;;-88
2022/01/14 09:33:37;;;;;;;17.4;7;;;;;;;;;;;;;-88
2022/01/14 09:34:31;;;;;;;;;;;;;;;4.73;95.02148;103707.3;;;;-87
2022/01/14 09:39:33;;;;;;;;;;;;;;;4.76;94.98438;103705.2;;;;-88
2022/01/14 09:44:31;;;;;;;;;;;;;;;4.78;94.93555;103697.3;;;;-87
2022/01/14 09:49:32;;;;;;;;;;;;;;;4.81;94.87695;103705.3;;;;-88
2022/01/14 09:54:44;;;;;;;;;;;;;;;4.84;94.81738;103702.1;;;;-88
2022/01/14 09:59:36;;;;;;;;;;;;;;;4.86;94.80176;103705.4;;;;-88
2022/01/14 10:03:37;;;;;;;15.9;6.4;;;;;;;;;;;;;-86
2022/01/14 10:04:31;;;;;;;;;;;;;;;4.91;94.82031;103703.1;;;;-87
2022/01/14 10:09:39;;;;;;;;;;;;;;;4.94;94.81738;103708.6;;;;-86
2022/01/14 10:14:31;;;;;;;;;;;;;;;4.98;94.80566;103717.9;;;;-89
2022/01/14 10:19:37;;;;;;;;;;;;;;;5.02;94.72852;103714;;;;-88
2022/01/14 10:24:34;;;;;;;;;;;;;;;5.06;94.61719;103722.5;;;;-88
2022/01/14 10:29:47;;;;;;;;;;;;;;;5.11;94.55957;103713.7;;;;-88
2022/01/14 10:33:44;;;;;;;12.5;6;;;;;;;;;;;;;-89
2022/01/14 10:34:30;;;;;;;;;;;;;;;5.16;94.59375;103711.2;;;;-88
2022/01/14 10:39:32;;;;;;;;;;;;;;;5.21;94.4209;103712.2;;;;-88
2022/01/14 10:44:37;;;;;;;;;;;;;;;5.28;94.34961;103715;;;;-88
2022/01/14 10:49:39;;;;;;;;;;;;;;;5.34;94.23047;103720.5;;;;-89
2022/01/14 10:54:44;;;;;;;;;;;;;;;5.39;94.08105;103711;;;;-89
2022/01/14 10:59:36;;;;;;;;;;;;;;;5.46;94.07129;103711.4;;;;-88
2022/01/14 11:03:41;;;;;;;12.4;5.8;;;;;;;;;;;;;-87
2022/01/14 11:04:31;;;;;;;;;;;;;;;5.52;93.89941;103711;;;;-86
2022/01/14 11:09:33;;;;;;;;;;;;;;;5.59;93.75195;103709;;;;-87
2022/01/14 11:14:31;;;;;;;;;;;;;;;5.66;93.60449;103715.4;;;;-87
2022/01/14 11:19:34;;;;;;;;;;;;;;;5.72;93.35449;103713.1;;;;-87
2022/01/14 11:24:34;;;;;;;;;;;;;;;5.78;93.17285;103711.2;;;;-87
2022/01/14 11:29:48;;;;;;;;;;;;;;;5.84;93.02246;103712.4;;;;-88
2022/01/14 11:33:46;;;;;;;12.9;5.5;;;;;;;;;;;;;-83
2022/01/14 11:34:43;;;;;;;;;;;;;;;5.89;92.95605;103708.1;;;;-82
2022/01/14 11:39:31;;;;;;;;;;;;;;;5.94;92.79297;103701.2;;;;-81
2022/01/14 11:44:41;;;;;;;;;;;;;;;5.99;92.72656;103704.4;;;;-83
2022/01/14 11:49:40;;;;;;;;;;;;;;;6.03;92.60352;103691.1;;;;-82
2022/01/14 11:54:40;;;;;;;;;;;;;;;6.07;92.52637;103674.6;;;;-82
2022/01/14 11:59:50;;;;;;;;;;;;;;;6.12;92.42676;103676.2;;;;-87
2022/01/14 12:03:37;;;;;;;11.4;5.2;;;;;;;;;;;;;-87
2022/01/14 12:04:40;;;;;;;;;;;;;;;6.19;92.35254;103679.6;;;;-87
2022/01/14 12:09:33;;;;;;;;;;;;;;;6.25;92.2793;103688.6;;;;-87
2022/01/14 12:14:45;;;;;;;;;;;;;;;6.3;92.13574;103694.7;;;;-88
2022/01/14 12:19:32;;;;;;;;;;;;;;;6.33;92.16504;103690.1;;;;-86
2022/01/14 12:24:47;;;;;;;;;;;;;;;6.37;92.08789;103680.8;;;;-87
2022/01/14 12:29:35;;;;;;;;;;;;;;;6.41;92.01953;103677.8;;;;-82
2022/01/14 12:33:52;;;;;;;9.3;4.6;;;;;;;;;;;;;-82
2022/01/14 12:34:31;;;;;;;;;;;;;;;6.44;92.07031;103673.4;;;;-81
2022/01/14 12:39:30;;;;;;;;;;;;;;;6.48;92.08691;103669.9;;;;-81
2022/01/14 12:44:33;;;;;;;;;;;;;;;6.51;91.87598;103666.8;;;;-83
2022/01/14 12:49:34;;;;;;;;;;;;;;;6.57;91.96484;103664.6;;;;-83
2022/01/14 12:54:43;;;;;;;;;;;;;;;6.63;91.80078;103655;;;;-82
2022/01/14 13:03:36;;;;;;;10.4;4.6;;;;;;;;;;;;;-81
2022/01/14 13:06:09;;;;;;;;;;;;;;;6.72;92.00781;103651.8;;;;-82
2022/01/14 13:11:12;;;;;;;;;;;;;;;6.76;91.88672;103652.3;;;;-82
2022/01/14 13:16:14;;;;;;;;;;;;;;;6.81;91.90723;103648.8;;;;-82
2022/01/14 13:21:09;;;;;;;;;;;;;;;6.84;91.76172;103640.9;;;;-82
2022/01/14 13:26:15;;;;;;;;;;;;;;;6.86;91.6123;103636.6;;;;-88
2022/01/14 13:31:14;;;;;;;;;;;;;;;6.87;91.71094;103636.1;;;;-87
2022/01/14 13:33:43;;;;;;;9.3;3.6;;;;;;;;;;;;;-86
2022/01/14 13:36:18;;;;;;;;;;;;;;;6.88;91.73633;103635.9;;;;-86
2022/01/14 13:41:14;;;;;;;;;;;;;;;6.9;91.88281;103642.2;;;;-87
2022/01/14 13:46:19;;;;;;;;;;;;;;;6.91;91.9502;103641.1;;;;-87
2022/01/14 13:51:11;;;;;;;;;;;;;;;6.91;91.9375;103642.1;;;;-87
2022/01/14 13:56:12;;;;;;;;;;;;;;;6.91;92.1582;103645.1;;;;-88
2022/01/14 14:01:13;;;;;;;;;;;;;;;6.91;92.22363;103655.5;;;;-88
2022/01/14 14:03:52;;;;;;;7.7;3.2;;;;;;;;;;;;;-87
2022/01/14 14:06:18;;;;;;;;;;;;;;;6.9;92.24121;103654.8;;;;-87
2022/01/14 14:16:09;;;;;;;;;;;;;;;6.87;92.41016;103648.7;;;;-86
2022/01/14 14:21:24;;;;;;;;;;;;;;;6.86;92.46289;103653.6;;;;-87
2022/01/14 14:26:14;;;;;;;;;;;;;;;6.85;92.4834;103649;;;;-87
2022/01/14 14:31:09;;;;;;;;;;;;;;;6.84;92.53809;103648.9;;;;-87
2022/01/14 14:33:38;;;;;;;6.1;2.7;;;;;;;;;;;;;-87
2022/01/14 14:36:12;;;;;;;;;;;;;;;6.83;92.54492;103647.4;;;;-87
2022/01/14 14:41:10;;;;;;;;;;;;;;;6.82;92.72852;103648.1;;;;-85
2022/01/14 14:46:10;;;;;;;;;;;;;;;6.8;92.73535;103650.3;;;;-86
2022/01/14 14:51:21;;;;;;;;;;;;;;;6.78;92.81738;103647.9;;;;-86
2022/01/14 14:56:15;;;;;;;;;;;;;;;6.76;92.83691;103645.1;;;;-86
2022/01/14 15:01:11;;;;;;;;;;;;;;;6.74;92.875;103645.7;;;;-86
2022/01/14 15:03:40;;;;;;;6.6;2.8;;;;;;;;;;;;;-86
2022/01/14 15:06:11;;;;;;;;;;;;;;;6.72;92.89355;103639.5;;;;-87
2022/01/14 15:11:10;;;;;;;;;;;;;;;6.69;92.97461;103638.4;;;;-87
2022/01/14 15:21:09;;;;;;;;;;;;;;;6.64;93.07227;103633.3;;;;-88
2022/01/14 15:26:09;;;;;;;;;;;;;;;6.6;93.19531;103630.2;;;;-88
2022/01/14 15:31:09;;;;;;;;;;;;;;;6.57;93.25293;103623.2;;;;-86
2022/01/14 15:33:38;;;;;;;7;2.8;;;;;;;;;;;;;-85
2022/01/14 15:36:10;;;;;;;;;;;;;;;6.53;93.22168;103616.2;;;;-88
2022/01/14 15:41:10;;;;;;;;;;;;;;;6.49;93.2373;103609.7;;;;-87
2022/01/14 15:46:15;;;;;;;;;;;;;;;6.47;93.35352;103603.5;;;;-88
2022/01/14 15:51:10;;;;;;;;;;;;;;;6.43;93.39844;103600.7;;;;-87
2022/01/14 15:56:12;;;;;;;;;;;;;;;6.41;93.49316;103599.7;;;;-86
2022/01/14 16:01:16;;;;;;;;;;;;;;;6.37;93.50684;103603.7;;;;-86
2022/01/14 16:03:39;;;;;;;5.5;2.4;;;;;;;;;;;;;-86
2022/01/14 16:06:12;;;;;;;;;;;;;;;6.35;93.53418;103600.7;;;;-88
2022/01/14 16:11:10;;;;;;;;;;;;;;;6.31;93.59375;103610.1;;;;-82
2022/01/14 16:16:12;;;;;;;;;;;;;;;6.29;93.66406;103613.2;;;;-81
2022/01/14 16:21:11;;;;;;;;;;;;;;;6.26;93.71289;103609.7;;;;-82
2022/01/14 16:26:18;;;;;;;;;;;;;;;6.23;93.79395;103613.4;;;;-80
2022/01/14 16:31:09;;;;;;;;;;;;;;;6.21;93.96094;103611.5;;;;-83
2022/01/14 16:33:38;;;;;;;6.1;2.5;;;;;;;;;;;;;-82
2022/01/14 16:36:12;;;;;;;;;;;;;;;6.18;94.02051;103617.9;;;;-81
2022/01/14 16:41:10;;;;;;;;;;;;;;;6.15;94.06836;103619.1;;;;-88
2022/01/14 16:46:11;;;;;;;;;;;;;;;6.13;94.20898;103623.7;;;;-88
2022/01/14 16:51:10;;;;;;;;;;;;;;;6.1;94.27734;103617.1;;;;-86
2022/01/14 16:56:13;;;;;;;;;;;;;;;6.08;94.38184;103619.3;;;;-85
2022/01/14 17:01:11;;;;;;;;;;;;;;;6.05;94.41797;103622.1;;;;-87
2022/01/14 17:03:38;;;;;;;5.8;2.8;;;;;;;;;;;;;-87
2022/01/14 17:06:14;;;;;;;;;;;;;;;6.04;94.45898;103623.4;;;;-86
2022/01/14 17:11:11;;;;;;;;;;;;;;;6.02;94.47754;103623.7;;;;-86
2022/01/14 17:16:15;;;;;;;;;;;;;;;6;94.53809;103626.4;;;;-87
2022/01/14 17:21:10;;;;;;;;;;;;;;;5.98;94.62207;103625.9;;;;-87
2022/01/14 17:26:13;;;;;;;;;;;;;;;5.96;94.65039;103624.3;;;;-85
2022/01/14 17:31:19;;;;;;;;;;;;;;;5.94;94.625;103622.6;;;;-86
2022/01/14 17:33:38;;;;;;;5.6;2.8;;;;;;;;;;;;;-85
2022/01/14 17:36:12;;;;;;;;;;;;;;;5.93;94.64453;103631.6;;;;-86
2022/01/14 17:41:12;;;;;;;;;;;;;;;5.91;94.66016;103628;;;;-86
2022/01/14 17:46:10;;;;;;;;;;;;;;;5.89;94.65625;103624.1;;;;-84
2022/01/14 17:51:15;;;;;;;;;;;;;;;5.88;94.68555;103619.1;;;;-82
2022/01/14 17:56:10;;;;;;;;;;;;;;;5.86;94.70508;103625.8;;;;-82
2022/01/14 18:01:11;;;;;;;;;;;;;;;5.85;94.71191;103625.5;;;;-86
2022/01/14 18:03:40;;;;;;;6.7;3.2;;;;;;;;;;;;;-85
2022/01/14 18:06:10;;;;;;;;;;;;;;;5.83;94.75195;103628.3;;;;-85
2022/01/14 18:11:09;;;;;;;;;;;;;;;5.82;94.77148;103624.4;;;;-86
2022/01/14 18:16:14;;;;;;;;;;;;;;;5.81;94.78027;103623.8;;;;-86
2022/01/14 18:21:10;;;;;;;;;;;;;;;5.79;94.78711;103625.4;;;;-84
2022/01/14 18:26:10;;;;;;;;;;;;;;;5.78;94.79395;103622.1;;;;-84
2022/01/14 18:31:10;;;;;;;;;;;;;;;5.76;94.79199;103623.9;;;;-86
2022/01/14 18:33:39;;;;;;;7;3.3;;;;;;;;;;;;;-85
2022/01/14 18:36:12;;;;;;;;;;;;;;;5.74;94.82031;103619.1;;;;-85
2022/01/14 18:41:10;;;;;;;;;;;;;;;5.74;94.81836;103620.9;;;;-87
2022/01/14 18:46:13;;;;;;;;;;;;;;;5.72;94.83691;103621.8;;;;-85
2022/01/14 18:51:09;;;;;;;;;;;;;;;5.71;94.82422;103608.9;;;;-83
2022/01/14 18:56:09;;;;;;;;;;;;;;;5.7;94.84375;103605.3;;;;-87
2022/01/14 19:01:11;;;;;;;;;;;;;;;5.68;94.83984;103594.9;;;;-86
2022/01/14 19:03:40;;;;;;;8.2;4;;;;;;;;;;;;;-85
2022/01/14 19:06:09;;;;;;;;;;;;;;;5.67;94.85938;103590;;;;-83
2022/01/14 19:11:12;;;;;;;;;;;;;;;5.66;94.83398;103589.4;;;;-86
2022/01/14 19:16:12;;;;;;;;;;;;;;;5.64;94.85156;103581.6;;;;-85
2022/01/14 19:21:11;;;;;;;;;;;;;;;5.63;94.84961;103576.6;;;;-85
2022/01/14 19:26:10;;;;;;;;;;;;;;;5.61;94.87793;103572.2;;;;-86
2022/01/14 19:31:12;;;;;;;;;;;;;;;5.6;94.85449;103559.7;;;;-85
2022/01/14 19:33:44;;;;;;;9.9;4.8;;;;;;;;;;;;;-84
2022/01/14 19:36:14;;;;;;;;;;;;;;;5.58;94.86133;103548.4;;;;-85
2022/01/14 19:41:09;;;;;;;;;;;;;;;5.58;94.85938;103558.3;;;;-83
2022/01/14 19:46:11;;;;;;;;;;;;;;;5.56;94.86816;103555.8;;;;-84
2022/01/14 19:51:10;;;;;;;;;;;;;;;5.55;94.86426;103555.2;;;;-86
2022/01/14 19:56:11;;;;;;;;;;;;;;;5.54;94.89453;103550.7;;;;-85
2022/01/14 20:01:09;;;;;;;;;;;;;;;5.52;94.90137;103545.7;;;;-85
2022/01/14 20:03:40;;;;;;;9;4.6;;;;;;;;;;;;;-85
2022/01/14 20:06:11;;;;;;;;;;;;;;;5.51;94.89941;103536.5;;;;-84
2022/01/14 20:11:10;;;;;;;;;;;;;;;5.5;94.89746;103542.6;;;;-84
2022/01/14 20:16:11;;;;;;;;;;;;;;;5.49;94.9043;103538.9;;;;-84
2022/01/14 20:21:09;;;;;;;;;;;;;;;5.48;94.8916;103544.5;;;;-86
2022/01/14 20:26:09;;;;;;;;;;;;;;;5.46;94.87695;103533.3;;;;-85
2022/01/14 20:31:11;;;;;;;;;;;;;;;5.45;94.875;103529.3;;;;-85
2022/01/14 20:33:38;;;;;;;9.3;4.9;;;;;;;;;;;;;-86
2022/01/14 20:36:11;;;;;;;;;;;;;;;5.43;94.87109;103534.1;;;;-85
2022/01/14 20:41:09;;;;;;;;;;;;;;;5.42;94.8584;103529.7;;;;-86
2022/01/14 20:46:10;;;;;;;;;;;;;;;5.41;94.84766;103539.4;;;;-85
2022/01/14 20:51:10;;;;;;;;;;;;;;;5.4;94.86523;103534.7;;;;-85
2022/01/14 20:56:09;;;;;;;;;;;;;;;5.38;94.84961;103533.8;;;;-84
2022/01/14 21:01:09;;;;;;;;;;;;;;;5.37;94.85645;103534.4;;;;-84
2022/01/14 21:03:40;;;;;;;10.4;5.1;;;;;;;;;;;;;-87
2022/01/14 21:06:10;;;;;;;;;;;;;;;5.36;94.81152;103534.9;;;;-86
2022/01/14 21:11:09;;;;;;;;;;;;;;;5.34;94.79883;103529.2;;;;-87
2022/01/14 21:16:09;;;;;;;;;;;;;;;5.33;94.80762;103529.3;;;;-85
2022/01/14 21:21:10;;;;;;;;;;;;;;;5.33;94.80566;103536.8;;;;-85
2022/01/14 21:26:21;;;;;;;;;;;;;;;;;;;;;
2022/01/14 21:31:10;;;;;;;;;;;;;;;5.3;94.77734;103540.3;;;;-84
2022/01/14 21:33:37;;;;;;;11.1;5.2;;;;;;;;;;;;;-85
2022/01/14 21:36:09;;;;;;;;;;;;;;;5.28;94.80664;103530;;;;-84
2022/01/14 21:41:09;;;;;;;;;;;;;;;5.27;94.81348;103527.9;;;;-87
2022/01/14 21:46:10;;;;;;;;;;;;;;;5.24;94.81836;103518.5;;;;-86
2022/01/14 21:51:21;;;;;;;;;;;;;;;5.22;94.80566;103516.1;;;;-86
2022/01/14 21:56:09;;;;;;;;;;;;;;;5.21;94.79199;103511.8;;;;-85
2022/01/14 22:01:11;;;;;;;;;;;;;;;5.2;94.83203;103507;;;;-83
2022/01/14 22:03:38;;;;;;;11.8;5.5;;;;;;;;;;;;;-86
2022/01/14 22:06:09;;;;;;;;;;;;;;;5.2;94.83203;103508.5;;;;-85
2022/01/14 22:11:12;;;;;;;;;;;;;;;5.19;94.81934;103506.6;;;;-85
2022/01/14 22:16:11;;;;;;;;;;;;;;;5.18;94.83691;103495.8;;;;-85
2022/01/14 22:21:09;;;;;;;;;;;;;;;5.17;94.82617;103496;;;;-87
2022/01/14 22:26:09;;;;;;;;;;;;;;;5.17;94.81543;103495.1;;;;-84
2022/01/14 22:31:09;;;;;;;;;;;;;;;5.16;94.82227;103489.4;;;;-84
2022/01/14 22:33:37;;;;;;;11.3;5.6;;;;;;;;;;;;;-85
2022/01/14 22:36:12;;;;;;;;;;;;;;;5.14;94.82031;103490.6;;;;-86
2022/01/14 22:41:10;;;;;;;;;;;;;;;5.14;94.8291;103497.7;;;;-82
2022/01/14 22:46:09;;;;;;;;;;;;;;;5.13;94.82715;103491.8;;;;-83
2022/01/14 22:51:09;;;;;;;;;;;;;;;5.12;94.81641;103481.3;;;;-86
2022/01/14 22:56:14;;;;;;;;;;;;;;;5.11;94.83398;103479.3;;;;-86
2022/01/14 23:01:09;;;;;;;;;;;;;;;5.1;94.85352;103476.6;;;;-86
2022/01/14 23:03:39;;;;;;;14;6;;;;;;;;;;;;;-86
2022/01/14 23:06:09;;;;;;;;;;;;;;;5.09;94.8623;103473.8;;;;-81
2022/01/14 23:11:10;;;;;;;;;;;;;;;5.08;94.84961;103467.6;;;;-82
2022/01/14 23:16:09;;;;;;;;;;;;;;;5.07;94.8584;103463.2;;;;-86
2022/01/14 23:21:13;;;;;;;;;;;;;;;5.06;94.8457;103456.9;;;;-86
2022/01/14 23:26:09;;;;;;;;;;;;;;;5.05;94.86328;103463.2;;;;-85
2022/01/14 23:31:10;;;;;;;;;;;;;;;5.04;94.8418;103464.6;;;;-87
2022/01/14 23:33:38;;;;;;;14.2;6.3;;;;;;;;;;;;;-87
2022/01/14 23:36:10;;;;;;;;;;;;;;;5.03;94.87207;103459.2;;;;-85
2022/01/14 23:41:30;;;;;;;;;;;;;;;;;;;;;
2022/01/14 23:46:52;;;;;;;;;;;;;;;5.01;94.89844;103438.9;;;;-87
2022/01/14 23:51:09;;;;;;;;;;;;;;;5.01;94.88574;103437.7;;;;-87
2022/01/14 23:56:09;;;;;;;;;;;;;;;4.99;94.88379;103426.7;;;;-86
